sensor_id;sensor_type;location;lat;lon;timestamp;P1;durP1;ratioP1;P2;durP2;ratioP2
37365;SDS011;23239;51.504;7.456;2023-08-20T00:00:00;14.7;;;10.1;;
37365;SDS011;23239;51.504;7.456;2023-08-20T00:01:00;12.5;;;10.6;;
37365;SDS011;23239;51.504;7.456;2023-08-20T00:02:01;12.5;;;10.6;;
37365;SDS011;23239;51.504;7.456;2023-08-20T00:03:03;12.5;;;10.6;;
37365;SDS011;23239;51.504;7.456;2023-08-20T00:04:00;12.5;;;10.6;;
37365;SDS011;23239;51.504;7.456;2023-08-20T00:05:00;12.5;;;10.6;;
37365;SDS011;23239;51.504;7.456;2023-08-20T00:06:00;15.3;;;10.4;;
37365;SDS011;23239;51.504;7.456;2023-08-20T00:07:00;15.3;;;10.4;;
37365;SDS011;23239;51.504;7.456;2023-08-20T00:08:00;15.3;;;10.4;;
37365;SDS011;23239;51.504;7.456;2023-08-20T00:09:00;15.3;;;10.4;;
37365;SDS011;23239;51.504;7.456;2023-08-20T00:10:00;15.3;;;10.4;;
37365;SDS011;23239;51.504;7.456;2023-08-20T00:11:00;16.1;;;11.7;;
37365;SDS011;23239;51.504;7.456;2023-08-20T00:12:00;16.1;;;11.7;;
37365;SDS011;23239;51.504;7.456;2023-08-20T00:13:00;16.1;;;11.7;;
37365;SDS011;23239;51.504;7.456;2023-08-20T00:14:00;16.1;;;11.7;;
37365;SDS011;23239;51.504;7.456;2023-08-20T00:15:01;16.1;;;11.7;;
37365;SDS011;23239;51.504;7.456;2023-08-20T00:16:00;16.2;;;11.3;;
37365;SDS011;23239;51.504;7.456;2023-08-20T00:17:00;16.2;;;11.3;;
37365;SDS011;23239;51.504;7.456;2023-08-20T00:18:00;16.2;;;11.3;;
37365;SDS011;23239;51.504;7.456;2023-08-20T00:19:00;16.2;;;11.3;;
37365;SDS011;23239;51.504;7.456;2023-08-20T00:20:00;16.2;;;11.3;;
37365;SDS011;23239;51.504;7.456;2023-08-20T00:21:00;18.0;;;13.6;;
37365;SDS011;23239;51.504;7.456;2023-08-20T00:22:00;18.0;;;13.6;;
37365;SDS011;23239;51.504;7.456;2023-08-20T00:23:00;18.0;;;13.6;;
37365;SDS011;23239;51.504;7.456;2023-08-20T00:24:00;18.0;;;13.6;;
37365;SDS011;23239;51.504;7.456;2023-08-20T00:25:00;18.0;;;13.6;;
37365;SDS011;23239;51.504;7.456;2023-08-20T00:26:00;17.8;;;12.8;;
37365;SDS011;23239;51.504;7.456;2023-08-20T00:27:00;17.8;;;12.8;;
37365;SDS011;23239;51.504;7.456;2023-08-20T00:28:00;17.8;;;12.8;;
37365;SDS011;23239;51.504;7.456;2023-08-20T00:29:00;17.8;;;12.8;;
37365;SDS011;23239;51.504;7.456;2023-08-20T00:30:00;17.8;;;12.8;;
37365;SDS011;23239;51.504;7.456;2023-08-20T00:31:00;15.4;;;11.7;;
37365;SDS011;23239;51.504;7.456;2023-08-20T00:32:00;15.4;;;11.7;;
37365;SDS011;23239;51.504;7.456;2023-08-20T00:33:00;15.4;;;11.7;;
37365;SDS011;23239;51.504;7.456;2023-08-20T00:34:00;15.4;;;11.7;;
37365;SDS011;23239;51.504;7.456;2023-08-20T00:35:00;15.4;;;11.7;;
37365;SDS011;23239;51.504;7.456;2023-08-20T00:36:00;17.4;;;12.9;;
37365;SDS011;23239;51.504;7.456;2023-08-20T00:37:00;17.4;;;12.9;;
37365;SDS011;23239;51.504;7.456;2023-08-20T00:38:00;17.4;;;12.9;;
37365;SDS011;23239;51.504;7.456;2023-08-20T00:39:00;17.4;;;12.9;;
37365;SDS011;23239;51.504;7.456;2023-08-20T00:40:00;17.4;;;12.9;;
37365;SDS011;23239;51.504;7.456;2023-08-20T00:41:00;15.1;;;12.2;;
37365;SDS011;23239;51.504;7.456;2023-08-20T00:42:00;15.1;;;12.2;;
37365;SDS011;23239;51.504;7.456;2023-08-20T00:43:00;15.1;;;12.2;;
37365;SDS011;23239;51.504;7.456;2023-08-20T00:44:00;15.1;;;12.2;;
37365;SDS011;23239;51.504;7.456;2023-08-20T00:45:00;15.1;;;12.2;;
37365;SDS011;23239;51.504;7.456;2023-08-20T00:46:00;17.1;;;13.4;;
37365;SDS011;23239;51.504;7.456;2023-08-20T00:47:01;17.1;;;13.4;;
37365;SDS011;23239;51.504;7.456;2023-08-20T00:48:00;17.1;;;13.4;;
37365;SDS011;23239;51.504;7.456;2023-08-20T00:49:00;17.1;;;13.4;;
37365;SDS011;23239;51.504;7.456;2023-08-20T00:50:00;17.1;;;13.4;;
37365;SDS011;23239;51.504;7.456;2023-08-20T00:51:00;14.9;;;12.6;;
37365;SDS011;23239;51.504;7.456;2023-08-20T00:52:00;14.9;;;12.6;;
37365;SDS011;23239;51.504;7.456;2023-08-20T00:53:00;14.9;;;12.6;;
37365;SDS011;23239;51.504;7.456;2023-08-20T00:54:00;14.9;;;12.6;;
37365;SDS011;23239;51.504;7.456;2023-08-20T00:55:01;14.9;;;12.6;;
37365;SDS011;23239;51.504;7.456;2023-08-20T00:56:00;16.9;;;13.2;;
37365;SDS011;23239;51.504;7.456;2023-08-20T00:57:00;16.9;;;13.2;;
37365;SDS011;23239;51.504;7.456;2023-08-20T00:58:00;16.9;;;13.2;;
37365;SDS011;23239;51.504;7.456;2023-08-20T00:59:00;16.9;;;13.2;;
37365;SDS011;23239;51.504;7.456;2023-08-20T01:00:00;16.9;;;13.2;;
37365;SDS011;23239;51.504;7.456;2023-08-20T01:01:01;15.4;;;12.4;;
37365;SDS011;23239;51.504;7.456;2023-08-20T01:02:00;15.4;;;12.4;;
37365;SDS011;23239;51.504;7.456;2023-08-20T01:03:00;15.4;;;12.4;;
37365;SDS011;23239;51.504;7.456;2023-08-20T01:04:00;15.4;;;12.4;;
37365;SDS011;23239;51.504;7.456;2023-08-20T01:05:00;15.4;;;12.4;;
37365;SDS011;23239;51.504;7.456;2023-08-20T01:06:01;14.6;;;12.2;;
37365;SDS011;23239;51.504;7.456;2023-08-20T01:07:02;14.6;;;12.2;;
37365;SDS011;23239;51.504;7.456;2023-08-20T01:08:04;14.6;;;12.2;;
37365;SDS011;23239;51.504;7.456;2023-08-20T01:09:01;14.6;;;12.2;;
37365;SDS011;23239;51.504;7.456;2023-08-20T01:10:03;14.6;;;12.2;;
37365;SDS011;23239;51.504;7.456;2023-08-20T01:11:01;17.7;;;13.8;;
37365;SDS011;23239;51.504;7.456;2023-08-20T01:12:01;17.7;;;13.8;;
37365;SDS011;23239;51.504;7.456;2023-08-20T01:13:00;17.7;;;13.8;;
37365;SDS011;23239;51.504;7.456;2023-08-20T01:14:00;17.7;;;13.8;;
37365;SDS011;23239;51.504;7.456;2023-08-20T01:15:00;17.7;;;13.8;;
37365;SDS011;23239;51.504;7.456;2023-08-20T01:16:00;15.8;;;12.9;;
37365;SDS011;23239;51.504;7.456;2023-08-20T01:17:00;15.8;;;12.9;;
37365;SDS011;23239;51.504;7.456;2023-08-20T01:18:00;15.8;;;12.9;;
37365;SDS011;23239;51.504;7.456;2023-08-20T01:19:00;15.8;;;12.9;;
37365;SDS011;23239;51.504;7.456;2023-08-20T01:20:00;15.8;;;12.9;;
37365;SDS011;23239;51.504;7.456;2023-08-20T01:21:01;15.6;;;12.7;;
37365;SDS011;23239;51.504;7.456;2023-08-20T01:22:05;15.6;;;12.7;;
37365;SDS011;23239;51.504;7.456;2023-08-20T01:24:05;15.6;;;12.7;;
37365;SDS011;23239;51.504;7.456;2023-08-20T01:25:04;15.6;;;12.7;;
37365;SDS011;23239;51.504;7.456;2023-08-20T01:26:06;15.0;;;12.9;;
37365;SDS011;23239;51.504;7.456;2023-08-20T01:27:03;15.0;;;12.9;;
37365;SDS011;23239;51.504;7.456;2023-08-20T01:28:03;15.0;;;12.9;;
37365;SDS011;23239;51.504;7.456;2023-08-20T01:29:00;15.0;;;12.9;;
37365;SDS011;23239;51.504;7.456;2023-08-20T01:30:00;15.0;;;12.9;;
37365;SDS011;23239;51.504;7.456;2023-08-20T01:31:00;15.3;;;12.4;;
37365;SDS011;23239;51.504;7.456;2023-08-20T01:32:00;15.3;;;12.4;;
37365;SDS011;23239;51.504;7.456;2023-08-20T01:33:00;15.3;;;12.4;;
37365;SDS011;23239;51.504;7.456;2023-08-20T01:34:00;15.3;;;12.4;;
37365;SDS011;23239;51.504;7.456;2023-08-20T01:35:00;15.3;;;12.4;;
37365;SDS011;23239;51.504;7.456;2023-08-20T01:36:00;16.3;;;12.4;;
37365;SDS011;23239;51.504;7.456;2023-08-20T01:37:00;16.3;;;12.4;;
37365;SDS011;23239;51.504;7.456;2023-08-20T01:38:00;16.3;;;12.4;;
37365;SDS011;23239;51.504;7.456;2023-08-20T01:39:00;16.3;;;12.4;;
37365;SDS011;23239;51.504;7.456;2023-08-20T01:40:00;16.3;;;12.4;;
37365;SDS011;23239;51.504;7.456;2023-08-20T01:41:00;18.2;;;13.0;;
37365;SDS011;23239;51.504;7.456;2023-08-20T01:42:00;18.2;;;13.0;;
37365;SDS011;23239;51.504;7.456;2023-08-20T01:43:00;18.2;;;13.0;;
37365;SDS011;23239;51.504;7.456;2023-08-20T01:44:00;18.2;;;13.0;;
37365;SDS011;23239;51.504;7.456;2023-08-20T01:45:00;18.2;;;13.0;;
37365;SDS011;23239;51.504;7.456;2023-08-20T01:46:00;17.8;;;12.9;;
37365;SDS011;23239;51.504;7.456;2023-08-20T01:47:00;17.8;;;12.9;;
37365;SDS011;23239;51.504;7.456;2023-08-20T01:48:00;17.8;;;12.9;;
37365;SDS011;23239;51.504;7.456;2023-08-20T01:49:00;17.8;;;12.9;;
37365;SDS011;23239;51.504;7.456;2023-08-20T01:50:00;17.8;;;12.9;;
37365;SDS011;23239;51.504;7.456;2023-08-20T01:51:00;16.2;;;13.3;;
37365;SDS011;23239;51.504;7.456;2023-08-20T01:52:00;16.2;;;13.3;;
37365;SDS011;23239;51.504;7.456;2023-08-20T01:53:00;16.2;;;13.3;;
37365;SDS011;23239;51.504;7.456;2023-08-20T01:54:00;16.2;;;13.3;;
37365;SDS011;23239;51.504;7.456;2023-08-20T01:55:00;16.2;;;13.3;;
37365;SDS011;23239;51.504;7.456;2023-08-20T01:56:00;17.4;;;13.5;;
37365;SDS011;23239;51.504;7.456;2023-08-20T01:57:00;17.4;;;13.5;;
37365;SDS011;23239;51.504;7.456;2023-08-20T01:58:00;17.4;;;13.5;;
37365;SDS011;23239;51.504;7.456;2023-08-20T01:59:00;17.4;;;13.5;;
37365;SDS011;23239;51.504;7.456;2023-08-20T02:00:00;17.4;;;13.5;;
37365;SDS011;23239;51.504;7.456;2023-08-20T02:01:00;18.6;;;13.8;;
37365;SDS011;23239;51.504;7.456;2023-08-20T02:02:00;18.6;;;13.8;;
37365;SDS011;23239;51.504;7.456;2023-08-20T02:03:00;18.6;;;13.8;;
37365;SDS011;23239;51.504;7.456;2023-08-20T02:04:00;18.6;;;13.8;;
37365;SDS011;23239;51.504;7.456;2023-08-20T02:05:00;18.6;;;13.8;;
37365;SDS011;23239;51.504;7.456;2023-08-20T02:06:00;15.8;;;13.5;;
37365;SDS011;23239;51.504;7.456;2023-08-20T02:07:00;15.8;;;13.5;;
37365;SDS011;23239;51.504;7.456;2023-08-20T02:08:00;15.8;;;13.5;;
37365;SDS011;23239;51.504;7.456;2023-08-20T02:09:00;15.8;;;13.5;;
37365;SDS011;23239;51.504;7.456;2023-08-20T02:10:00;15.8;;;13.5;;
37365;SDS011;23239;51.504;7.456;2023-08-20T02:11:00;17.0;;;14.5;;
37365;SDS011;23239;51.504;7.456;2023-08-20T02:12:00;17.0;;;14.5;;
37365;SDS011;23239;51.504;7.456;2023-08-20T02:13:00;17.0;;;14.5;;
37365;SDS011;23239;51.504;7.456;2023-08-20T02:14:00;17.0;;;14.5;;
37365;SDS011;23239;51.504;7.456;2023-08-20T02:15:00;17.0;;;14.5;;
37365;SDS011;23239;51.504;7.456;2023-08-20T02:16:00;16.5;;;13.8;;
37365;SDS011;23239;51.504;7.456;2023-08-20T02:17:00;16.5;;;13.8;;
37365;SDS011;23239;51.504;7.456;2023-08-20T02:18:00;16.5;;;13.8;;
37365;SDS011;23239;51.504;7.456;2023-08-20T02:19:00;16.5;;;13.8;;
37365;SDS011;23239;51.504;7.456;2023-08-20T02:20:00;16.5;;;13.8;;
37365;SDS011;23239;51.504;7.456;2023-08-20T02:21:00;19.9;;;15.1;;
37365;SDS011;23239;51.504;7.456;2023-08-20T02:22:00;19.9;;;15.1;;
37365;SDS011;23239;51.504;7.456;2023-08-20T02:23:00;19.9;;;15.1;;
37365;SDS011;23239;51.504;7.456;2023-08-20T02:24:00;19.9;;;15.1;;
37365;SDS011;23239;51.504;7.456;2023-08-20T02:25:00;19.9;;;15.1;;
37365;SDS011;23239;51.504;7.456;2023-08-20T02:26:00;16.3;;;14.5;;
37365;SDS011;23239;51.504;7.456;2023-08-20T02:27:00;16.3;;;14.5;;
37365;SDS011;23239;51.504;7.456;2023-08-20T02:28:00;16.3;;;14.5;;
37365;SDS011;23239;51.504;7.456;2023-08-20T02:29:00;16.3;;;14.5;;
37365;SDS011;23239;51.504;7.456;2023-08-20T02:30:00;16.3;;;14.5;;
37365;SDS011;23239;51.504;7.456;2023-08-20T02:31:03;19.0;;;15.3;;
37365;SDS011;23239;51.504;7.456;2023-08-20T02:32:00;19.0;;;15.3;;
37365;SDS011;23239;51.504;7.456;2023-08-20T02:33:00;19.0;;;15.3;;
37365;SDS011;23239;51.504;7.456;2023-08-20T02:34:00;19.0;;;15.3;;
37365;SDS011;23239;51.504;7.456;2023-08-20T02:35:00;19.0;;;15.3;;
37365;SDS011;23239;51.504;7.456;2023-08-20T02:36:00;19.1;;;15.5;;
37365;SDS011;23239;51.504;7.456;2023-08-20T02:37:00;19.1;;;15.5;;
37365;SDS011;23239;51.504;7.456;2023-08-20T02:38:00;19.1;;;15.5;;
37365;SDS011;23239;51.504;7.456;2023-08-20T02:39:00;19.1;;;15.5;;
37365;SDS011;23239;51.504;7.456;2023-08-20T02:40:00;19.1;;;15.5;;
37365;SDS011;23239;51.504;7.456;2023-08-20T02:41:00;20.0;;;14.7;;
37365;SDS011;23239;51.504;7.456;2023-08-20T02:42:00;20.0;;;14.7;;
37365;SDS011;23239;51.504;7.456;2023-08-20T02:43:00;20.0;;;14.7;;
37365;SDS011;23239;51.504;7.456;2023-08-20T02:44:00;20.0;;;14.7;;
37365;SDS011;23239;51.504;7.456;2023-08-20T02:45:00;20.0;;;14.7;;
37365;SDS011;23239;51.504;7.456;2023-08-20T02:46:00;20.3;;;15.1;;
37365;SDS011;23239;51.504;7.456;2023-08-20T02:47:00;20.3;;;15.1;;
37365;SDS011;23239;51.504;7.456;2023-08-20T02:48:00;20.3;;;15.1;;
37365;SDS011;23239;51.504;7.456;2023-08-20T02:49:00;20.3;;;15.1;;
37365;SDS011;23239;51.504;7.456;2023-08-20T02:50:00;20.3;;;15.1;;
37365;SDS011;23239;51.504;7.456;2023-08-20T02:51:00;18.3;;;14.8;;
37365;SDS011;23239;51.504;7.456;2023-08-20T02:52:00;18.3;;;14.8;;
37365;SDS011;23239;51.504;7.456;2023-08-20T02:53:00;18.3;;;14.8;;
37365;SDS011;23239;51.504;7.456;2023-08-20T02:54:00;18.3;;;14.8;;
37365;SDS011;23239;51.504;7.456;2023-08-20T02:55:00;18.3;;;14.8;;
37365;SDS011;23239;51.504;7.456;2023-08-20T02:56:00;18.4;;;15.1;;
37365;SDS011;23239;51.504;7.456;2023-08-20T02:57:00;18.4;;;15.1;;
37365;SDS011;23239;51.504;7.456;2023-08-20T02:58:00;18.4;;;15.1;;
37365;SDS011;23239;51.504;7.456;2023-08-20T02:59:00;18.4;;;15.1;;
37365;SDS011;23239;51.504;7.456;2023-08-20T03:00:00;18.4;;;15.1;;
37365;SDS011;23239;51.504;7.456;2023-08-20T03:01:00;20.4;;;15.1;;
37365;SDS011;23239;51.504;7.456;2023-08-20T03:02:00;20.4;;;15.1;;
37365;SDS011;23239;51.504;7.456;2023-08-20T03:03:00;20.4;;;15.1;;
37365;SDS011;23239;51.504;7.456;2023-08-20T03:04:00;20.4;;;15.1;;
37365;SDS011;23239;51.504;7.456;2023-08-20T03:05:00;20.4;;;15.1;;
37365;SDS011;23239;51.504;7.456;2023-08-20T03:06:00;19.1;;;14.7;;
37365;SDS011;23239;51.504;7.456;2023-08-20T03:07:00;19.1;;;14.7;;
37365;SDS011;23239;51.504;7.456;2023-08-20T03:08:00;19.1;;;14.7;;
37365;SDS011;23239;51.504;7.456;2023-08-20T03:09:00;19.1;;;14.7;;
37365;SDS011;23239;51.504;7.456;2023-08-20T03:10:00;19.1;;;14.7;;
37365;SDS011;23239;51.504;7.456;2023-08-20T03:11:00;18.9;;;14.7;;
37365;SDS011;23239;51.504;7.456;2023-08-20T03:12:00;18.9;;;14.7;;
37365;SDS011;23239;51.504;7.456;2023-08-20T03:13:00;18.9;;;14.7;;
37365;SDS011;23239;51.504;7.456;2023-08-20T03:14:00;18.9;;;14.7;;
37365;SDS011;23239;51.504;7.456;2023-08-20T03:15:00;18.9;;;14.7;;
37365;SDS011;23239;51.504;7.456;2023-08-20T03:16:00;18.9;;;15.5;;
37365;SDS011;23239;51.504;7.456;2023-08-20T03:17:00;18.9;;;15.5;;
37365;SDS011;23239;51.504;7.456;2023-08-20T03:18:00;18.9;;;15.5;;
37365;SDS011;23239;51.504;7.456;2023-08-20T03:19:00;18.9;;;15.5;;
37365;SDS011;23239;51.504;7.456;2023-08-20T03:20:00;18.9;;;15.5;;
37365;SDS011;23239;51.504;7.456;2023-08-20T03:21:00;19.6;;;15.2;;
37365;SDS011;23239;51.504;7.456;2023-08-20T03:22:00;19.6;;;15.2;;
37365;SDS011;23239;51.504;7.456;2023-08-20T03:23:00;19.6;;;15.2;;
37365;SDS011;23239;51.504;7.456;2023-08-20T03:24:01;19.6;;;15.2;;
37365;SDS011;23239;51.504;7.456;2023-08-20T03:25:00;19.6;;;15.2;;
37365;SDS011;23239;51.504;7.456;2023-08-20T03:26:00;18.9;;;15.3;;
37365;SDS011;23239;51.504;7.456;2023-08-20T03:27:00;18.9;;;15.3;;
37365;SDS011;23239;51.504;7.456;2023-08-20T03:28:00;18.9;;;15.3;;
37365;SDS011;23239;51.504;7.456;2023-08-20T03:29:00;18.9;;;15.3;;
37365;SDS011;23239;51.504;7.456;2023-08-20T03:30:00;18.9;;;15.3;;
37365;SDS011;23239;51.504;7.456;2023-08-20T03:31:00;19.5;;;15.7;;
37365;SDS011;23239;51.504;7.456;2023-08-20T03:32:00;19.5;;;15.7;;
37365;SDS011;23239;51.504;7.456;2023-08-20T03:33:00;19.5;;;15.7;;
37365;SDS011;23239;51.504;7.456;2023-08-20T03:34:00;19.5;;;15.7;;
37365;SDS011;23239;51.504;7.456;2023-08-20T03:35:00;19.5;;;15.7;;
37365;SDS011;23239;51.504;7.456;2023-08-20T03:36:00;19.9;;;15.3;;
37365;SDS011;23239;51.504;7.456;2023-08-20T03:37:00;19.9;;;15.3;;
37365;SDS011;23239;51.504;7.456;2023-08-20T03:38:00;19.9;;;15.3;;
37365;SDS011;23239;51.504;7.456;2023-08-20T03:39:00;19.9;;;15.3;;
37365;SDS011;23239;51.504;7.456;2023-08-20T03:40:00;19.9;;;15.3;;
37365;SDS011;23239;51.504;7.456;2023-08-20T03:41:00;23.2;;;18.0;;
37365;SDS011;23239;51.504;7.456;2023-08-20T03:42:00;23.2;;;18.0;;
37365;SDS011;23239;51.504;7.456;2023-08-20T03:43:00;23.2;;;18.0;;
37365;SDS011;23239;51.504;7.456;2023-08-20T03:44:00;23.2;;;18.0;;
37365;SDS011;23239;51.504;7.456;2023-08-20T03:45:00;23.2;;;18.0;;
37365;SDS011;23239;51.504;7.456;2023-08-20T03:46:01;28.8;;;21.6;;
37365;SDS011;23239;51.504;7.456;2023-08-20T03:47:00;28.8;;;21.6;;
37365;SDS011;23239;51.504;7.456;2023-08-20T03:48:00;28.8;;;21.6;;
37365;SDS011;23239;51.504;7.456;2023-08-20T03:49:00;28.8;;;21.6;;
37365;SDS011;23239;51.504;7.456;2023-08-20T03:50:00;28.8;;;21.6;;
37365;SDS011;23239;51.504;7.456;2023-08-20T03:51:00;29.5;;;22.2;;
37365;SDS011;23239;51.504;7.456;2023-08-20T03:52:00;29.5;;;22.2;;
37365;SDS011;23239;51.504;7.456;2023-08-20T03:53:00;29.5;;;22.2;;
37365;SDS011;23239;51.504;7.456;2023-08-20T03:54:00;29.5;;;22.2;;
37365;SDS011;23239;51.504;7.456;2023-08-20T03:55:00;29.5;;;22.2;;
37365;SDS011;23239;51.504;7.456;2023-08-20T03:56:00;31.5;;;24.2;;
37365;SDS011;23239;51.504;7.456;2023-08-20T03:57:00;31.5;;;24.2;;
37365;SDS011;23239;51.504;7.456;2023-08-20T03:58:00;31.5;;;24.2;;
37365;SDS011;23239;51.504;7.456;2023-08-20T03:59:00;31.5;;;24.2;;
37365;SDS011;23239;51.504;7.456;2023-08-20T04:00:00;31.5;;;24.2;;
37365;SDS011;23239;51.504;7.456;2023-08-20T04:01:00;33.7;;;26.1;;
37365;SDS011;23239;51.504;7.456;2023-08-20T04:02:00;33.7;;;26.1;;
37365;SDS011;23239;51.504;7.456;2023-08-20T04:03:00;33.7;;;26.1;;
37365;SDS011;23239;51.504;7.456;2023-08-20T04:04:00;33.7;;;26.1;;
37365;SDS011;23239;51.504;7.456;2023-08-20T04:05:00;33.7;;;26.1;;
37365;SDS011;23239;51.504;7.456;2023-08-20T04:06:00;39.5;;;29.5;;
37365;SDS011;23239;51.504;7.456;2023-08-20T04:07:00;39.5;;;29.5;;
37365;SDS011;23239;51.504;7.456;2023-08-20T04:08:00;39.5;;;29.5;;
37365;SDS011;23239;51.504;7.456;2023-08-20T04:09:00;39.5;;;29.5;;
37365;SDS011;23239;51.504;7.456;2023-08-20T04:10:00;39.5;;;29.5;;
37365;SDS011;23239;51.504;7.456;2023-08-20T04:11:00;42.2;;;30.4;;
37365;SDS011;23239;51.504;7.456;2023-08-20T04:12:00;42.2;;;30.4;;
37365;SDS011;23239;51.504;7.456;2023-08-20T04:13:00;42.2;;;30.4;;
37365;SDS011;23239;51.504;7.456;2023-08-20T04:14:00;42.2;;;30.4;;
37365;SDS011;23239;51.504;7.456;2023-08-20T04:15:00;42.2;;;30.4;;
37365;SDS011;23239;51.504;7.456;2023-08-20T04:16:00;51.3;;;34.7;;
37365;SDS011;23239;51.504;7.456;2023-08-20T04:17:00;51.3;;;34.7;;
37365;SDS011;23239;51.504;7.456;2023-08-20T04:18:00;51.3;;;34.7;;
37365;SDS011;23239;51.504;7.456;2023-08-20T04:19:00;51.3;;;34.7;;
37365;SDS011;23239;51.504;7.456;2023-08-20T04:20:00;51.3;;;34.7;;
37365;SDS011;23239;51.504;7.456;2023-08-20T04:21:00;50.6;;;33.9;;
37365;SDS011;23239;51.504;7.456;2023-08-20T04:22:00;50.6;;;33.9;;
37365;SDS011;23239;51.504;7.456;2023-08-20T04:23:00;50.6;;;33.9;;
37365;SDS011;23239;51.504;7.456;2023-08-20T04:24:00;50.6;;;33.9;;
37365;SDS011;23239;51.504;7.456;2023-08-20T04:25:00;50.6;;;33.9;;
37365;SDS011;23239;51.504;7.456;2023-08-20T04:26:00;52.9;;;33.6;;
37365;SDS011;23239;51.504;7.456;2023-08-20T04:27:00;52.9;;;33.6;;
37365;SDS011;23239;51.504;7.456;2023-08-20T04:28:00;52.9;;;33.6;;
37365;SDS011;23239;51.504;7.456;2023-08-20T04:29:00;52.9;;;33.6;;
37365;SDS011;23239;51.504;7.456;2023-08-20T04:30:00;52.9;;;33.6;;
37365;SDS011;23239;51.504;7.456;2023-08-20T04:31:00;53.7;;;33.1;;
37365;SDS011;23239;51.504;7.456;2023-08-20T04:32:00;53.7;;;33.1;;
37365;SDS011;23239;51.504;7.456;2023-08-20T04:33:00;53.7;;;33.1;;
37365;SDS011;23239;51.504;7.456;2023-08-20T04:34:00;53.7;;;33.1;;
37365;SDS011;23239;51.504;7.456;2023-08-20T04:35:00;53.7;;;33.1;;
37365;SDS011;23239;51.504;7.456;2023-08-20T04:36:00;48.8;;;31.9;;
37365;SDS011;23239;51.504;7.456;2023-08-20T04:37:00;48.8;;;31.9;;
37365;SDS011;23239;51.504;7.456;2023-08-20T04:38:00;48.8;;;31.9;;
37365;SDS011;23239;51.504;7.456;2023-08-20T04:39:00;48.8;;;31.9;;
37365;SDS011;23239;51.504;7.456;2023-08-20T04:40:00;48.8;;;31.9;;
37365;SDS011;23239;51.504;7.456;2023-08-20T04:41:00;54.1;;;32.8;;
37365;SDS011;23239;51.504;7.456;2023-08-20T04:42:00;54.1;;;32.8;;
37365;SDS011;23239;51.504;7.456;2023-08-20T04:43:00;54.1;;;32.8;;
37365;SDS011;23239;51.504;7.456;2023-08-20T04:44:00;54.1;;;32.8;;
37365;SDS011;23239;51.504;7.456;2023-08-20T04:45:00;54.1;;;32.8;;
37365;SDS011;23239;51.504;7.456;2023-08-20T04:46:00;50.1;;;33.0;;
37365;SDS011;23239;51.504;7.456;2023-08-20T04:47:00;50.1;;;33.0;;
37365;SDS011;23239;51.504;7.456;2023-08-20T04:48:00;50.1;;;33.0;;
37365;SDS011;23239;51.504;7.456;2023-08-20T04:49:00;50.1;;;33.0;;
37365;SDS011;23239;51.504;7.456;2023-08-20T04:50:00;50.1;;;33.0;;
37365;SDS011;23239;51.504;7.456;2023-08-20T04:51:00;52.9;;;33.3;;
37365;SDS011;23239;51.504;7.456;2023-08-20T04:52:00;52.9;;;33.3;;
37365;SDS011;23239;51.504;7.456;2023-08-20T04:53:00;52.9;;;33.3;;
37365;SDS011;23239;51.504;7.456;2023-08-20T04:54:00;52.9;;;33.3;;
37365;SDS011;23239;51.504;7.456;2023-08-20T04:55:00;52.9;;;33.3;;
37365;SDS011;23239;51.504;7.456;2023-08-20T04:56:00;48.8;;;32.0;;
37365;SDS011;23239;51.504;7.456;2023-08-20T04:57:00;48.8;;;32.0;;
37365;SDS011;23239;51.504;7.456;2023-08-20T04:58:00;48.8;;;32.0;;
37365;SDS011;23239;51.504;7.456;2023-08-20T04:59:00;48.8;;;32.0;;
37365;SDS011;23239;51.504;7.456;2023-08-20T05:00:00;48.8;;;32.0;;
37365;SDS011;23239;51.504;7.456;2023-08-20T05:01:00;50.8;;;33.9;;
37365;SDS011;23239;51.504;7.456;2023-08-20T05:02:00;50.8;;;33.9;;
37365;SDS011;23239;51.504;7.456;2023-08-20T05:03:00;50.8;;;33.9;;
37365;SDS011;23239;51.504;7.456;2023-08-20T05:04:00;50.8;;;33.9;;
37365;SDS011;23239;51.504;7.456;2023-08-20T05:05:00;50.8;;;33.9;;
37365;SDS011;23239;51.504;7.456;2023-08-20T05:06:00;48.4;;;32.3;;
37365;SDS011;23239;51.504;7.456;2023-08-20T05:07:00;48.4;;;32.3;;
37365;SDS011;23239;51.504;7.456;2023-08-20T05:08:00;48.4;;;32.3;;
37365;SDS011;23239;51.504;7.456;2023-08-20T05:09:00;48.4;;;32.3;;
37365;SDS011;23239;51.504;7.456;2023-08-20T05:10:00;48.4;;;32.3;;
37365;SDS011;23239;51.504;7.456;2023-08-20T05:11:00;51.6;;;34.3;;
37365;SDS011;23239;51.504;7.456;2023-08-20T05:12:00;51.6;;;34.3;;
37365;SDS011;23239;51.504;7.456;2023-08-20T05:13:00;51.6;;;34.3;;
37365;SDS011;23239;51.504;7.456;2023-08-20T05:14:00;51.6;;;34.3;;
37365;SDS011;23239;51.504;7.456;2023-08-20T05:15:00;51.6;;;34.3;;
37365;SDS011;23239;51.504;7.456;2023-08-20T05:16:00;46.7;;;31.2;;
37365;SDS011;23239;51.504;7.456;2023-08-20T05:17:00;46.7;;;31.2;;
37365;SDS011;23239;51.504;7.456;2023-08-20T05:18:00;46.7;;;31.2;;
37365;SDS011;23239;51.504;7.456;2023-08-20T05:19:00;46.7;;;31.2;;
37365;SDS011;23239;51.504;7.456;2023-08-20T05:20:00;46.7;;;31.2;;
37365;SDS011;23239;51.504;7.456;2023-08-20T05:21:00;44.8;;;31.0;;
37365;SDS011;23239;51.504;7.456;2023-08-20T05:22:00;44.8;;;31.0;;
37365;SDS011;23239;51.504;7.456;2023-08-20T05:23:00;44.8;;;31.0;;
37365;SDS011;23239;51.504;7.456;2023-08-20T05:24:00;44.8;;;31.0;;
37365;SDS011;23239;51.504;7.456;2023-08-20T05:25:00;44.8;;;31.0;;
37365;SDS011;23239;51.504;7.456;2023-08-20T05:26:00;41.4;;;29.2;;
37365;SDS011;23239;51.504;7.456;2023-08-20T05:27:04;41.4;;;29.2;;
37365;SDS011;23239;51.504;7.456;2023-08-20T05:28:00;41.4;;;29.2;;
37365;SDS011;23239;51.504;7.456;2023-08-20T05:29:00;41.4;;;29.2;;
37365;SDS011;23239;51.504;7.456;2023-08-20T05:30:00;41.4;;;29.2;;
37365;SDS011;23239;51.504;7.456;2023-08-20T05:31:00;43.7;;;30.6;;
37365;SDS011;23239;51.504;7.456;2023-08-20T05:32:00;43.7;;;30.6;;
37365;SDS011;23239;51.504;7.456;2023-08-20T05:33:00;43.7;;;30.6;;
37365;SDS011;23239;51.504;7.456;2023-08-20T05:34:00;43.7;;;30.6;;
37365;SDS011;23239;51.504;7.456;2023-08-20T05:35:00;43.7;;;30.6;;
37365;SDS011;23239;51.504;7.456;2023-08-20T05:36:00;42.1;;;29.1;;
37365;SDS011;23239;51.504;7.456;2023-08-20T05:37:00;42.1;;;29.1;;
37365;SDS011;23239;51.504;7.456;2023-08-20T05:38:00;42.1;;;29.1;;
37365;SDS011;23239;51.504;7.456;2023-08-20T05:39:00;42.1;;;29.1;;
37365;SDS011;23239;51.504;7.456;2023-08-20T05:40:00;42.1;;;29.1;;
37365;SDS011;23239;51.504;7.456;2023-08-20T05:41:00;43.2;;;27.8;;
37365;SDS011;23239;51.504;7.456;2023-08-20T05:42:00;43.2;;;27.8;;
37365;SDS011;23239;51.504;7.456;2023-08-20T05:43:00;43.2;;;27.8;;
37365;SDS011;23239;51.504;7.456;2023-08-20T05:44:00;43.2;;;27.8;;
37365;SDS011;23239;51.504;7.456;2023-08-20T05:45:00;43.2;;;27.8;;
37365;SDS011;23239;51.504;7.456;2023-08-20T05:46:00;37.9;;;27.1;;
37365;SDS011;23239;51.504;7.456;2023-08-20T05:47:00;37.9;;;27.1;;
37365;SDS011;23239;51.504;7.456;2023-08-20T05:48:00;37.9;;;27.1;;
37365;SDS011;23239;51.504;7.456;2023-08-20T05:49:00;37.9;;;27.1;;
37365;SDS011;23239;51.504;7.456;2023-08-20T05:50:00;37.9;;;27.1;;
37365;SDS011;23239;51.504;7.456;2023-08-20T05:51:00;43.4;;;30.1;;
37365;SDS011;23239;51.504;7.456;2023-08-20T05:52:00;43.4;;;30.1;;
37365;SDS011;23239;51.504;7.456;2023-08-20T05:53:00;43.4;;;30.1;;
37365;SDS011;23239;51.504;7.456;2023-08-20T05:54:00;43.4;;;30.1;;
37365;SDS011;23239;51.504;7.456;2023-08-20T05:55:00;43.4;;;30.1;;
37365;SDS011;23239;51.504;7.456;2023-08-20T05:56:00;41.6;;;29.2;;
37365;SDS011;23239;51.504;7.456;2023-08-20T05:57:00;41.6;;;29.2;;
37365;SDS011;23239;51.504;7.456;2023-08-20T05:58:00;41.6;;;29.2;;
37365;SDS011;23239;51.504;7.456;2023-08-20T05:59:00;41.6;;;29.2;;
37365;SDS011;23239;51.504;7.456;2023-08-20T06:00:00;41.6;;;29.2;;
37365;SDS011;23239;51.504;7.456;2023-08-20T06:01:00;37.1;;;27.4;;
37365;SDS011;23239;51.504;7.456;2023-08-20T06:02:00;37.1;;;27.4;;